createdAt,value
2022-08-17T00:02:25.369Z,25.48
2022-08-17T00:04:31.014Z,21.67
2022-08-17T00:06:35.767Z,22.92
2022-08-17T00:08:42.540Z,18.98
2022-08-17T00:10:47.596Z,23.90
2022-08-17T00:12:52.493Z,23.60
2022-08-17T00:14:56.966Z,23.40
2022-08-17T00:17:03.865Z,26.35
2022-08-17T00:19:13.993Z,18.52
2022-08-17T00:21:23.719Z,22.58
2022-08-17T00:23:30.112Z,25.17
2022-08-17T00:25:35.198Z,26.60
2022-08-17T00:27:39.473Z,20.52
2022-08-17T00:29:45.547Z,22.58
2022-08-17T00:31:50.175Z,22.33
2022-08-17T00:33:54.721Z,23.75
2022-08-17T00:36:01.549Z,22.85
2022-08-17T00:38:09.940Z,22.38
2022-08-17T00:40:16.399Z,24.38
2022-08-17T00:42:21.397Z,21.67
2022-08-17T00:44:30.352Z,24.02
2022-08-17T00:48:41.033Z,18.83
2022-08-17T00:50:51.567Z,22.25
2022-08-17T00:52:58.825Z,20.55
2022-08-17T00:55:03.969Z,21.63
2022-08-17T00:57:11.970Z,23.70
2022-08-17T00:59:21.893Z,20.75
2022-08-17T01:03:31.239Z,21.80
2022-08-17T01:05:42.081Z,26.80
2022-08-17T01:07:50.092Z,21.35
2022-08-17T01:09:56.321Z,20.05
2022-08-17T01:12:03.598Z,21.45
2022-08-17T01:14:09.012Z,21.10
2022-08-17T01:16:18.219Z,24.30
2022-08-17T01:18:22.668Z,22.50
2022-08-17T01:20:29.670Z,20.77
2022-08-17T01:22:35.521Z,24.35
2022-08-17T01:24:42.456Z,20.02
2022-08-17T01:26:47.655Z,20.00
2022-08-17T01:28:55.822Z,19.65
2022-08-17T01:31:05.701Z,21.58
2022-08-17T01:33:11.510Z,22.00
2022-08-17T01:35:15.872Z,21.73
2022-08-17T01:37:21.450Z,22.50
2022-08-17T01:39:31.117Z,20.20
2022-08-17T01:41:36.215Z,20.33
2022-08-17T01:43:45.578Z,18.27
2022-08-17T01:46:02.711Z,23.17
2022-08-17T01:48:08.342Z,19.25
2022-08-17T01:50:16.487Z,19.45
2022-08-17T01:52:23.856Z,19.48
2022-08-17T01:54:29.779Z,23.23
2022-08-17T01:56:36.995Z,24.80
2022-08-17T01:58:43.479Z,23.58
2022-08-17T02:01:00.924Z,25.33
2022-08-17T02:03:06.583Z,21.77
2022-08-17T02:05:10.962Z,25.50
2022-08-17T02:07:17.294Z,27.58
2022-08-17T02:09:23.427Z,30.60
2022-08-17T02:11:32.302Z,22.30
2022-08-17T02:13:38.090Z,24.92
2022-08-17T02:15:42.325Z,20.58
2022-08-17T02:17:46.678Z,22.38
2022-08-17T02:19:59.080Z,25.60
2022-08-17T02:22:03.372Z,23.33
2022-08-17T02:24:09.545Z,21.27
2022-08-17T02:26:25.551Z,23.42
2022-08-17T02:28:32.385Z,26.52
2022-08-17T02:31:01.725Z,22.67
2022-08-17T02:33:04.140Z,23.75
2022-08-17T02:35:11.284Z,21.80
2022-08-17T02:37:17.648Z,25.10
2022-08-17T02:39:21.996Z,23.90
2022-08-17T02:41:26.202Z,22.17
2022-08-17T02:43:32.495Z,24.52
2022-08-17T02:45:38.291Z,25.70
2022-08-17T02:47:42.835Z,21.33
2022-08-17T02:49:54.264Z,25.67
2022-08-17T02:52:00.253Z,23.83
2022-08-17T02:54:40.852Z,24.55
2022-08-17T02:56:29.040Z,23.13
2022-08-17T02:58:36.074Z,24.33
2022-08-17T03:00:44.101Z,23.75
2022-08-17T03:02:48.839Z,21.35
2022-08-17T03:04:53.197Z,22.48
2022-08-17T03:06:57.655Z,25.17
2022-08-17T03:09:02.175Z,23.90
2022-08-17T03:11:06.651Z,24.23
2022-08-17T03:13:12.804Z,21.88
2022-08-17T03:15:21.674Z,24.10
2022-08-17T03:17:25.967Z,29.08
2022-08-17T03:19:30.170Z,21.88
2022-08-17T03:21:34.447Z,22.30
2022-08-17T03:23:41.206Z,21.38
2022-08-17T03:25:46.804Z,18.27
2022-08-17T03:27:51.417Z,23.35
2022-08-17T03:29:56.378Z,17.88
2022-08-17T03:32:02.213Z,27.02
2022-08-17T03:34:06.448Z,25.30
2022-08-17T03:36:11.323Z,21.70
2022-08-17T03:38:17.488Z,20.42
2022-08-17T03:40:55.859Z,20.08
2022-08-17T03:42:47.316Z,20.23
2022-08-17T03:44:52.124Z,17.90
2022-08-17T03:47:20.128Z,20.73
2022-08-17T03:49:42.137Z,17.77
2022-08-17T03:52:03.971Z,19.83
2022-08-17T03:54:26.909Z,19.38
2022-08-17T03:56:46.393Z,23.27
2022-08-17T03:58:51.351Z,37.88
2022-08-17T04:00:57.055Z,19.65
2022-08-17T04:03:02.948Z,25.35
2022-08-17T04:05:07.996Z,19.90
2022-08-17T04:07:12.239Z,22.42
2022-08-17T04:09:16.456Z,20.10
2022-08-17T04:11:21.328Z,20.60
2022-08-17T04:13:25.770Z,24.27
2022-08-17T04:15:31.021Z,23.38
2022-08-17T04:17:35.255Z,21.13
2022-08-17T04:19:40.898Z,20.85
2022-08-17T04:21:45.199Z,19.98
2022-08-17T04:23:49.808Z,20.92
2022-08-17T04:25:54.168Z,20.63
2022-08-17T04:28:01.018Z,22.45
2022-08-17T04:30:07.411Z,17.67
2022-08-17T04:32:11.701Z,23.45
2022-08-17T04:34:15.949Z,16.00
2022-08-17T04:36:25.729Z,21.02
2022-08-17T04:38:31.831Z,23.45
2022-08-17T04:40:53.690Z,18.80
2022-08-17T04:43:03.044Z,16.38
2022-08-17T04:45:08.277Z,15.80
2022-08-17T04:47:13.203Z,18.13
2022-08-17T04:49:17.698Z,17.05
2022-08-17T04:51:26.388Z,18.48
2022-08-17T04:53:30.753Z,17.80
2022-08-17T04:55:35.037Z,21.77
2022-08-17T04:57:44.582Z,19.88
2022-08-17T04:59:49.318Z,18.38
2022-08-17T05:01:54.764Z,19.33
2022-08-17T05:04:02.394Z,15.75
2022-08-17T05:06:28.473Z,19.30
2022-08-17T05:08:32.685Z,20.42
2022-08-17T05:10:39.459Z,17.63
2022-08-17T05:12:57.863Z,16.40
2022-08-17T05:15:02.362Z,14.18
2022-08-17T05:17:11.283Z,18.15
2022-08-17T05:19:15.857Z,13.07
2022-08-17T05:21:20.666Z,16.45
2022-08-17T05:23:34.964Z,13.70
2022-08-17T05:25:49.108Z,17.30
2022-08-17T05:27:55.645Z,16.08
2022-08-17T05:30:02.493Z,21.15
2022-08-17T05:32:38.526Z,18.45
2022-08-17T05:34:36.708Z,15.05
2022-08-17T05:36:43.899Z,15.43
2022-08-17T05:38:50.692Z,15.35
2022-08-17T05:40:55.622Z,17.92
2022-08-17T05:43:07.893Z,17.92
2022-08-17T05:45:13.138Z,13.98
2022-08-17T05:47:31.418Z,15.88
2022-08-17T05:49:35.710Z,14.55
2022-08-17T05:52:03.101Z,18.95
2022-08-17T05:54:24.215Z,16.52
2022-08-17T05:56:47.870Z,16.70
2022-08-17T05:59:02.298Z,14.82
2022-08-17T06:01:17.004Z,13.88
2022-08-17T06:03:30.661Z,14.70
2022-08-17T06:05:59.430Z,20.10
2022-08-17T06:08:12.344Z,16.08
2022-08-17T06:10:25.446Z,15.30
2022-08-17T06:12:41.454Z,20.98
2022-08-17T06:14:59.036Z,14.77
2022-08-17T06:17:07.808Z,23.48
2022-08-17T06:19:16.786Z,22.48
2022-08-17T06:21:30.438Z,20.88
2022-08-17T06:23:40.613Z,19.02
2022-08-17T06:25:49.466Z,16.10
2022-08-17T06:27:59.310Z,15.55
2022-08-17T06:30:10.066Z,18.23
2022-08-17T06:32:16.668Z,12.73
2022-08-17T06:34:21.779Z,18.60
2022-08-17T06:36:41.254Z,17.35
2022-08-17T06:38:53.376Z,19.20
2022-08-17T06:41:10.351Z,20.42
2022-08-17T06:43:32.719Z,22.50
2022-08-17T06:45:39.129Z,22.10
2022-08-17T06:47:48.874Z,15.43
2022-08-17T06:49:59.397Z,15.13
2022-08-17T06:52:13.515Z,16.52
2022-08-17T06:54:43.227Z,21.73
2022-08-17T06:56:55.441Z,19.40
2022-08-17T06:59:01.045Z,14.75
2022-08-17T07:01:09.992Z,15.85
2022-08-17T07:03:21.704Z,13.55
2022-08-17T07:05:33.366Z,20.10
2022-08-17T07:07:58.255Z,24.77
2022-08-17T07:10:02.940Z,18.83
2022-08-17T07:12:16.298Z,17.48
2022-08-17T07:14:36.850Z,19.17
2022-08-17T07:16:44.107Z,19.20
2022-08-17T07:18:51.680Z,18.77
2022-08-17T07:21:01.095Z,13.57
2022-08-17T07:23:10.720Z,17.33
2022-08-17T07:25:20.784Z,18.73
2022-08-17T07:27:59.020Z,17.58
2022-08-17T07:30:45.507Z,13.93
2022-08-17T07:33:20.516Z,14.55
2022-08-17T07:35:41.260Z,19.02
2022-08-17T07:37:54.172Z,15.23
2022-08-17T07:40:16.979Z,16.63
2022-08-17T07:42:24.485Z,14.32
2022-08-17T07:44:47.960Z,17.10
2022-08-17T07:47:19.148Z,12.50
2022-08-17T07:49:37.594Z,14.18
2022-08-17T07:52:24.146Z,12.77
2022-08-17T07:54:31.787Z,10.18
2022-08-17T07:56:44.191Z,16.13
2022-08-17T07:58:49.224Z,14.23
2022-08-17T08:01:13.302Z,13.55
2022-08-17T08:03:27.362Z,13.43
2022-08-17T08:06:02.384Z,14.02
2022-08-17T08:08:28.464Z,16.98
2022-08-17T08:10:36.134Z,11.90
2022-08-17T08:12:44.025Z,11.52
2022-08-17T08:14:56.497Z,11.75
2022-08-17T08:17:06.814Z,13.52
2022-08-17T08:19:20.903Z,13.05
2022-08-17T08:21:34.685Z,13.88
2022-08-17T08:23:47.627Z,11.30
2022-08-17T08:26:01.709Z,14.10
2022-08-17T08:28:19.940Z,13.15
2022-08-17T08:30:28.352Z,10.50
2022-08-17T08:33:08.716Z,12.23
2022-08-17T08:35:22.789Z,14.63
2022-08-17T08:37:43.800Z,15.30
2022-08-17T08:40:15.776Z,12.93
2022-08-17T08:42:30.252Z,12.35
2022-08-17T08:45:00.321Z,10.45
2022-08-17T08:47:14.557Z,9.38
2022-08-17T08:50:37.301Z,11.18
2022-08-17T08:52:34.176Z,12.05
2022-08-17T08:54:46.492Z,11.35
2022-08-17T08:57:22.216Z,13.18
2022-08-17T08:59:28.266Z,11.35
2022-08-17T09:01:38.997Z,9.90
2022-08-17T09:04:26.084Z,15.02
2022-08-17T09:06:47.081Z,11.50
2022-08-17T09:09:01.801Z,10.32
2022-08-17T09:11:13.543Z,8.68
2022-08-17T09:13:45.016Z,14.93
2022-08-17T09:15:58.259Z,7.97
2022-08-17T09:19:00.954Z,8.38
2022-08-17T09:20:40.642Z,9.27
2022-08-17T09:22:54.409Z,11.88
2022-08-17T09:25:05.101Z,9.15
2022-08-17T09:27:14.742Z,12.13
2022-08-17T09:29:24.493Z,14.30
2022-08-17T09:31:47.034Z,9.52
2022-08-17T09:33:55.595Z,7.90
2022-08-17T09:36:04.171Z,11.52
2022-08-17T09:38:20.866Z,8.18
2022-08-17T09:40:28.964Z,10.50
2022-08-17T09:42:41.009Z,9.65
2022-08-17T09:44:57.968Z,7.93
2022-08-17T09:47:11.762Z,12.68
2022-08-17T09:49:32.724Z,8.38
2022-08-17T09:51:43.776Z,8.00
2022-08-17T09:53:50.009Z,11.07
2022-08-17T09:56:21.768Z,10.23
2022-08-17T09:58:34.805Z,8.18
2022-08-17T10:00:46.297Z,13.27
2022-08-17T10:03:16.459Z,13.10
2022-08-17T10:05:30.072Z,16.20
2022-08-17T10:07:42.392Z,10.35
2022-08-17T10:10:00.185Z,9.25
2022-08-17T10:12:21.714Z,11.38
2022-08-17T10:14:44.679Z,9.07
2022-08-17T10:17:04.325Z,11.32
2022-08-17T10:19:19.728Z,9.52
2022-08-17T10:21:43.515Z,14.45
2022-08-17T10:24:09.729Z,10.85
2022-08-17T10:26:22.234Z,9.70
2022-08-17T10:28:46.611Z,9.88
2022-08-17T10:31:34.155Z,9.15
2022-08-17T10:33:51.358Z,9.63
2022-08-17T10:36:29.887Z,10.15
2022-08-17T10:38:50.988Z,10.43
2022-08-17T10:41:40.680Z,14.63
2022-08-17T10:44:44.065Z,11.85
2022-08-17T10:47:28.924Z,13.02
2022-08-17T10:49:48.139Z,12.63
2022-08-17T10:52:05.411Z,10.63
2022-08-17T10:54:57.999Z,10.00
2022-08-17T10:57:44.563Z,8.50
2022-08-17T11:00:41.883Z,9.38
2022-08-17T11:02:51.232Z,9.18
2022-08-17T11:05:41.494Z,8.15
2022-08-17T11:08:29.267Z,13.55
2022-08-17T11:11:15.946Z,11.00
2022-08-17T11:13:43.306Z,11.40
2022-08-17T11:16:34.748Z,10.98
2022-08-17T11:19:18.136Z,12.52
2022-08-17T11:22:37.362Z,9.43
2022-08-17T11:25:37.484Z,11.43
2022-08-17T11:27:54.597Z,13.35
2022-08-17T11:30:14.772Z,8.60
2022-08-17T11:32:54.499Z,11.80
2022-08-17T11:35:30.727Z,10.95
2022-08-17T11:38:14.109Z,11.80
2022-08-17T11:40:56.018Z,9.20
2022-08-17T11:48:26.787Z,8.32
2022-08-17T11:51:40.833Z,11.30
2022-08-17T11:55:34.981Z,8.18
2022-08-17T11:59:28.606Z,7.78
2022-08-17T12:02:49.284Z,11.82
2022-08-17T12:06:12.488Z,8.05
2022-08-17T12:08:56.517Z,9.95
2022-08-17T12:11:56.277Z,13.73
2022-08-17T12:15:08.916Z,10.63
2022-08-17T12:18:44.092Z,9.20
2022-08-17T12:29:45.135Z,8.90
2022-08-17T12:32:18.817Z,9.70
2022-08-17T12:35:01.506Z,9.75
2022-08-17T12:38:26.845Z,7.95
2022-08-17T12:45:54.216Z,9.50
2022-08-17T12:49:44.617Z,9.68
2022-08-17T12:53:39.781Z,8.02
2022-08-17T12:57:31.457Z,10.18
2022-08-17T12:59:56.870Z,8.07
2022-08-17T13:03:12.804Z,7.97
2022-08-17T13:06:03.155Z,5.38
2022-08-17T13:14:54.204Z,9.88
2022-08-17T13:17:49.953Z,9.23
2022-08-17T13:20:02.019Z,7.00
2022-08-17T13:22:56.513Z,6.27
2022-08-17T13:25:27.057Z,6.35
2022-08-17T13:27:41.492Z,6.80
2022-08-17T13:32:43.928Z,9.00
2022-08-17T13:35:29.766Z,9.40
2022-08-17T13:37:55.895Z,11.98
2022-08-17T13:40:43.524Z,12.35
2022-08-17T13:43:13.235Z,11.98
2022-08-17T13:45:50.842Z,10.82
2022-08-17T13:48:15.104Z,9.90
2022-08-17T13:50:30.297Z,12.82
2022-08-17T13:53:16.478Z,11.73
2022-08-17T13:56:37.279Z,9.55
2022-08-17T13:59:53.224Z,13.77
2022-08-17T14:02:19.816Z,7.97
2022-08-17T14:04:46.661Z,9.15
2022-08-17T14:06:58.669Z,7.47
2022-08-17T14:09:24.694Z,8.27
2022-08-17T14:12:12.011Z,13.50
2022-08-17T14:14:43.558Z,11.95
2022-08-17T14:17:19.411Z,7.25
2022-08-17T14:20:11.487Z,7.28
2022-08-17T14:22:44.041Z,8.05
2022-08-17T14:25:34.005Z,7.18
2022-08-17T14:28:25.732Z,5.28
2022-08-17T14:31:37.428Z,5.20
2022-08-17T14:34:08.594Z,9.75
2022-08-17T14:36:49.957Z,7.82
2022-08-17T14:40:19.751Z,7.50
2022-08-17T14:43:12.423Z,6.78
2022-08-17T14:48:46.556Z,8.88
2022-08-17T14:50:58.125Z,9.93
2022-08-17T14:56:31.685Z,5.43
2022-08-17T14:59:54.801Z,8.15
2022-08-17T15:02:53.418Z,7.78
2022-08-17T15:05:51.694Z,9.18
2022-08-17T15:08:37.886Z,11.10
2022-08-17T15:12:01.271Z,9.30
2022-08-17T15:16:04.971Z,11.05
2022-08-17T15:19:11.745Z,10.07
2022-08-17T15:23:52.640Z,8.65
2022-08-17T15:40:11.603Z,11.55
2022-08-17T15:43:44.478Z,13.48
2022-08-17T15:55:23.432Z,22.23
2022-08-17T15:59:33.702Z,15.18
2022-08-17T16:42:48.995Z,19.17
2022-08-17T16:51:02.922Z,13.38
2022-08-17T16:55:04.659Z,13.85
2022-08-17T17:02:35.603Z,11.55
2022-08-17T17:10:19.250Z,13.32
2022-08-17T17:13:52.826Z,18.00
2022-08-17T17:21:05.817Z,15.45
2022-08-17T17:23:28.202Z,12.57
2022-08-17T17:25:39.743Z,13.13
2022-08-17T17:27:52.212Z,15.38
2022-08-17T17:30:08.738Z,17.02
2022-08-17T17:32:20.971Z,16.67
2022-08-17T17:34:30.318Z,14.63
2022-08-17T17:36:40.866Z,14.60
2022-08-17T17:38:50.214Z,13.75
2022-08-17T17:41:02.349Z,15.20
2022-08-17T17:43:35.243Z,14.95
2022-08-17T17:45:44.833Z,16.73
2022-08-17T17:47:52.787Z,16.73
2022-08-17T17:49:57.210Z,16.65
2022-08-17T17:52:10.157Z,10.80
2022-08-17T17:54:32.546Z,13.65
2022-08-17T17:56:44.798Z,10.25
2022-08-17T17:58:56.734Z,12.32
2022-08-17T18:01:20.075Z,15.73
2022-08-17T18:03:32.987Z,17.40
2022-08-17T18:05:57.546Z,12.48
2022-08-17T18:08:13.100Z,11.57
2022-08-17T18:10:30.429Z,13.48
2022-08-17T18:12:44.749Z,14.18
2022-08-17T18:15:02.810Z,13.25
2022-08-17T18:17:10.717Z,17.85
2022-08-17T18:19:19.964Z,19.33
2022-08-17T18:21:27.668Z,19.98
2022-08-17T18:23:33.144Z,14.32
2022-08-17T18:25:44.656Z,15.27
2022-08-17T18:27:52.441Z,20.15
2022-08-17T18:29:58.227Z,19.42
2022-08-17T18:32:29.205Z,17.92
2022-08-17T18:34:47.379Z,21.65
2022-08-17T18:36:52.760Z,23.10
2022-08-17T18:39:12.941Z,22.27
2022-08-17T18:41:30.696Z,18.27
2022-08-17T18:43:53.334Z,12.43
2022-08-17T18:46:17.092Z,11.85
2022-08-17T18:48:50.686Z,12.73
2022-08-17T18:50:57.238Z,11.23
2022-08-17T18:53:38.271Z,14.93
2022-08-17T18:55:42.761Z,18.13
2022-08-17T18:57:49.622Z,16.92
2022-08-17T18:59:54.023Z,17.30
2022-08-17T19:02:13.846Z,16.00
2022-08-17T19:04:35.853Z,19.95
2022-08-17T19:06:40.789Z,20.92
2022-08-17T19:08:45.316Z,17.30
2022-08-17T19:10:52.747Z,13.65
2022-08-17T19:13:13.070Z,16.77
2022-08-17T19:15:28.126Z,14.02
2022-08-17T19:17:39.194Z,12.27
2022-08-17T19:19:53.574Z,14.23
2022-08-17T19:22:04.474Z,13.57
2022-08-17T19:24:19.451Z,11.25
2022-08-17T19:26:51.026Z,14.05
2022-08-17T19:28:56.968Z,19.02
2022-08-17T19:31:05.843Z,10.93
2022-08-17T19:33:10.440Z,11.90
2022-08-17T19:35:28.236Z,11.25
2022-08-17T19:37:40.267Z,11.27
2022-08-17T19:39:54.647Z,17.35
2022-08-17T19:42:04.374Z,12.13
2022-08-17T19:44:47.097Z,13.45
2022-08-17T19:47:00.846Z,18.88
2022-08-17T19:49:15.255Z,13.60
2022-08-17T19:51:30.639Z,15.32
2022-08-17T19:54:04.455Z,18.00
2022-08-17T19:56:16.255Z,11.98
2022-08-17T19:58:33.191Z,21.77
2022-08-17T20:00:41.356Z,17.63
2022-08-17T20:02:55.809Z,13.02
2022-08-17T20:05:06.344Z,13.48
2022-08-17T20:07:18.365Z,16.95
2022-08-17T20:09:33.577Z,14.73
2022-08-17T20:11:46.558Z,13.25
2022-08-17T20:13:59.820Z,19.85
2022-08-17T20:16:05.405Z,14.75
2022-08-17T20:18:18.595Z,15.95
2022-08-17T20:20:32.054Z,16.20
2022-08-17T20:22:51.797Z,13.48
2022-08-17T20:25:08.517Z,12.07
2022-08-17T20:27:21.722Z,17.38
2022-08-17T20:29:37.306Z,12.95
2022-08-17T20:31:49.550Z,15.10
2022-08-17T20:33:53.864Z,19.33
2022-08-17T20:36:18.214Z,10.25
2022-08-17T20:38:41.841Z,16.90
2022-08-17T20:41:16.894Z,15.75
2022-08-17T20:43:45.998Z,13.02
2022-08-17T20:46:07.499Z,16.52
2022-08-17T20:48:37.396Z,10.07
2022-08-17T20:50:46.847Z,12.35
2022-08-17T20:52:53.798Z,12.55
2022-08-17T20:54:59.501Z,16.00
2022-08-17T20:57:09.197Z,13.13
2022-08-17T20:59:55.338Z,22.60
2022-08-17T21:02:19.102Z,14.30
2022-08-17T21:04:46.352Z,16.83
2022-08-17T21:07:29.145Z,14.20
2022-08-17T21:09:33.538Z,12.48
2022-08-17T21:12:05.016Z,15.02
2022-08-17T21:14:17.774Z,14.27
2022-08-17T21:16:50.453Z,14.05
2022-08-17T21:19:16.945Z,15.88
2022-08-17T21:21:29.015Z,16.35
2022-08-17T21:23:47.586Z,17.23
2022-08-17T21:26:03.905Z,11.77
2022-08-17T21:28:20.352Z,14.80
2022-08-17T21:30:47.741Z,21.70
2022-08-17T21:33:21.571Z,14.63
2022-08-17T21:35:31.111Z,12.90
2022-08-17T21:37:43.568Z,16.38
2022-08-17T21:39:51.941Z,14.50
2022-08-17T21:41:57.746Z,11.93
2022-08-17T21:44:21.806Z,17.08
2022-08-17T21:46:31.546Z,14.82
2022-08-17T21:48:43.928Z,15.02
2022-08-17T21:50:59.596Z,16.48
2022-08-17T21:53:05.392Z,15.00
2022-08-17T21:55:29.159Z,16.20
2022-08-17T21:57:35.687Z,14.30
2022-08-17T21:59:43.782Z,15.35
2022-08-17T22:01:58.002Z,14.02
2022-08-17T22:04:05.668Z,12.80
2022-08-17T22:06:25.295Z,20.80
2022-08-17T22:08:29.651Z,17.25
2022-08-17T22:10:37.056Z,15.75
2022-08-17T22:12:42.745Z,15.77
2022-08-17T22:15:00.487Z,15.00
2022-08-17T22:17:17.700Z,15.50
2022-08-17T22:19:22.293Z,16.95
2022-08-17T22:21:27.205Z,16.23
2022-08-17T22:24:03.221Z,14.90
2022-08-17T22:26:12.710Z,14.95
2022-08-17T22:28:37.639Z,14.32
2022-08-17T22:31:01.275Z,15.75
2022-08-17T22:33:31.478Z,20.75
2022-08-17T22:35:43.428Z,14.00
2022-08-17T22:37:47.776Z,17.10
2022-08-17T22:39:59.976Z,16.48
2022-08-17T22:42:04.565Z,17.35
2022-08-17T22:44:23.216Z,15.55
2022-08-17T22:46:30.300Z,17.43
2022-08-17T22:48:35.495Z,14.75
2022-08-17T22:50:39.913Z,18.58
2022-08-17T22:52:59.604Z,14.80
2022-08-17T22:55:30.756Z,20.50
2022-08-17T22:57:54.021Z,14.85
2022-08-17T22:59:58.778Z,17.63
2022-08-17T23:02:21.111Z,17.05
2022-08-17T23:04:34.087Z,14.45
2022-08-17T23:06:40.253Z,18.08
2022-08-17T23:08:49.814Z,17.40
2022-08-17T23:10:55.459Z,18.20
2022-08-17T23:13:00.597Z,16.70
2022-08-17T23:15:07.051Z,17.23
2022-08-17T23:17:11.378Z,16.75
2022-08-17T23:19:22.098Z,16.80
2022-08-17T23:21:30.178Z,18.63
2022-08-17T23:23:37.144Z,15.60
2022-08-17T23:25:44.605Z,19.98
2022-08-17T23:27:50.806Z,17.35
2022-08-17T23:29:55.794Z,24.23
2022-08-17T23:32:01.494Z,16.50
2022-08-17T23:34:09.086Z,13.85
2022-08-17T23:36:16.495Z,15.77
2022-08-17T23:38:20.897Z,15.77
2022-08-17T23:40:25.405Z,20.00
2022-08-17T23:42:30.604Z,17.95
2022-08-17T23:44:35.216Z,20.83
2022-08-17T23:46:40.811Z,19.65
2022-08-17T23:48:45.911Z,12.38
2022-08-17T23:50:51.740Z,13.18
2022-08-17T23:52:57.498Z,14.65
2022-08-17T23:55:01.755Z,20.17
2022-08-17T23:57:09.252Z,14.95
2022-08-17T23:59:14.990Z,16.70
